Time;durP1;ratioP1;P1;durP2;ratioP2;P2;SDS_P1;SDS_P2;PMS_P1;PMS_P2;Temp;Humidity;BMP_temperature;BMP_pressure;BME280_temperature;BME280_humidity;BME280_pressure;Samples;Min_cycle;Max_cycle;Signal;HPM_P1;HPM_P2
2023/09/18 00:00:57;;;;;;;10.05;4.80;;;21.60;99.90;;;;;;5059845;28;20035;-79
2023/09/18 00:03:25;;;;;;;8.63;4.07;;;21.60;99.90;;;;;;5057746;28;20031;-79
2023/09/18 00:05:53;;;;;;;9.77;4.68;;;21.60;99.90;;;;;;5065486;28;20464;-80
2023/09/18 00:08:24;;;;;;;10.85;5.32;;;21.50;99.90;;;;;;5065369;28;20461;-79
2023/09/18 00:10:54;;;;;;;10.40;5.18;;;21.50;99.90;;;;;;5062134;28;20028;-80
2023/09/18 00:13:22;;;;;;;11.32;4.88;;;21.50;99.90;;;;;;5071234;28;20044;-78
2023/09/18 00:15:48;;;;;;;10.07;5.03;;;21.50;99.90;;;;;;5063559;28;20057;-79
2023/09/18 00:18:15;;;;;;;8.50;4.65;;;21.50;99.90;;;;;;5071569;28;20041;-79
2023/09/18 00:20:41;;;;;;;11.95;4.50;;;21.50;99.90;;;;;;5061472;28;20960;-78
2023/09/18 00:23:10;;;;;;;14.00;6.40;;;21.50;99.90;;;;;;5060905;28;20107;-78
2023/09/18 00:25:36;;;;;;;12.27;5.22;;;21.40;99.90;;;;;;5062834;28;20060;-78
2023/09/18 00:28:03;;;;;;;12.73;4.72;;;21.40;99.90;;;;;;5073080;28;21538;-80
2023/09/18 00:30:31;;;;;;;11.40;4.30;;;21.40;99.90;;;;;;5058778;28;20033;-80
2023/09/18 00:32:58;;;;;;;8.23;4.90;;;21.40;99.90;;;;;;5061417;28;20028;-79
2023/09/18 00:35:24;;;;;;;8.57;5.07;;;21.30;99.90;;;;;;5060968;28;20060;-79
2023/09/18 00:37:50;;;;;;;9.85;4.70;;;21.40;99.90;;;;;;5061692;28;20063;-78
2023/09/18 00:40:15;;;;;;;12.00;4.65;;;21.30;99.90;;;;;;5058674;28;20044;-79
2023/09/18 00:42:41;;;;;;;9.30;4.30;;;21.30;99.90;;;;;;5061174;28;20032;-79
2023/09/18 00:45:08;;;;;;;8.60;4.85;;;21.30;99.90;;;;;;5059411;28;20042;-79
2023/09/18 00:47:36;;;;;;;11.00;5.10;;;21.30;99.90;;;;;;5059640;28;20090;-77
2023/09/18 00:50:01;;;;;;;12.05;5.03;;;21.20;99.90;;;;;;5062204;28;20044;-78
2023/09/18 00:52:30;;;;;;;8.05;4.53;;;21.30;99.90;;;;;;5056836;28;20051;-78
2023/09/18 00:55:00;;;;;;;9.50;4.82;;;21.20;99.90;;;;;;5076793;28;20035;-78
2023/09/18 00:57:26;;;;;;;10.18;4.45;;;21.20;99.90;;;;;;5076652;28;20032;-78
2023/09/18 00:59:56;;;;;;;8.40;4.78;;;21.20;99.90;;;;;;5057969;28;20098;-80
2023/09/18 01:02:21;;;;;;;7.03;4.75;;;21.20;99.90;;;;;;5059138;28;21599;-80
2023/09/18 01:04:49;;;;;;;9.82;4.55;;;21.20;99.90;;;;;;5060361;28;20040;-79
2023/09/18 01:07:14;;;;;;;10.00;4.97;;;21.20;99.90;;;;;;5057348;28;20030;-79
2023/09/18 01:09:41;;;;;;;7.43;3.92;;;21.10;99.90;;;;;;5061276;28;20028;-79
2023/09/18 01:12:33;;;;;;;8.13;4.60;;;21.10;99.90;;;;;;5058695;28;20028;-79
2023/09/18 01:15:28;;;;;;;10.68;5.10;;;21.10;99.90;;;;;;5055712;28;20032;-78
2023/09/18 01:17:56;;;;;;;14.68;4.20;;;21.10;99.90;;;;;;5050170;28;20025;-78
2023/09/18 01:20:22;;;;;;;12.13;4.07;;;21.10;99.90;;;;;;5059134;28;20515;-80
2023/09/18 01:22:50;;;;;;;13.63;5.38;;;21.10;99.90;;;;;;5058690;28;20070;-79
2023/09/18 01:25:15;;;;;;;9.90;4.80;;;21.10;99.90;;;;;;5068069;28;20028;-80
2023/09/18 01:27:47;;;;;;;9.02;5.10;;;21.10;99.90;;;;;;5059291;28;20420;-79
2023/09/18 01:30:15;;;;;;;13.77;4.63;;;21.10;99.90;;;;;;5075725;28;20040;-78
2023/09/18 01:32:45;;;;;;;17.10;5.25;;;21.00;99.90;;;;;;5058165;28;20043;-80
2023/09/18 01:35:12;;;;;;;10.55;5.00;;;21.10;99.90;;;;;;5057216;28;20029;-78
2023/09/18 01:37:41;;;;;;;10.98;4.38;;;21.00;99.90;;;;;;5058692;28;20025;-79
2023/09/18 01:40:11;;;;;;;9.40;4.57;;;21.00;99.90;;;;;;5068970;28;20029;-80
2023/09/18 01:42:38;;;;;;;10.75;4.75;;;21.00;99.90;;;;;;5058198;28;20107;-79
2023/09/18 01:45:05;;;;;;;9.65;4.43;;;21.00;99.90;;;;;;5068816;28;20036;-78
2023/09/18 01:47:30;;;;;;;7.75;4.32;;;21.00;99.90;;;;;;5058335;28;20422;-79
2023/09/18 01:49:58;;;;;;;15.75;4.40;;;21.00;99.90;;;;;;5057026;28;20122;-80
2023/09/18 01:52:24;;;;;;;13.18;4.82;;;21.00;99.90;;;;;;5058206;28;20033;-78
2023/09/18 01:54:50;;;;;;;6.95;4.10;;;21.10;99.90;;;;;;5074607;28;20031;-79
2023/09/18 01:57:15;;;;;;;18.25;4.63;;;21.10;99.90;;;;;;5057268;28;20071;-79
2023/09/18 01:59:41;;;;;;;13.38;4.72;;;21.10;99.90;;;;;;5058598;28;20094;-80
2023/09/18 02:02:09;;;;;;;9.35;4.32;;;21.10;99.90;;;;;;5059508;28;20033;-78
2023/09/18 02:04:36;;;;;;;7.75;4.25;;;21.10;99.90;;;;;;5059679;28;20033;-79
2023/09/18 02:07:02;;;;;;;17.60;4.40;;;21.10;99.90;;;;;;5070074;28;20032;-80
2023/09/18 02:09:30;;;;;;;8.20;4.18;;;21.10;99.90;;;;;;5057239;28;20032;-79
2023/09/18 02:11:58;;;;;;;9.38;4.70;;;21.10;99.90;;;;;;5062804;28;20045;-77
2023/09/18 02:14:23;;;;;;;8.60;4.10;;;21.10;99.90;;;;;;5060442;28;20028;-78
2023/09/18 02:16:51;;;;;;;6.50;3.45;;;21.10;99.90;;;;;;5058108;28;20043;-76
2023/09/18 02:19:20;;;;;;;7.65;4.03;;;21.10;99.90;;;;;;5068050;28;20033;-79
2023/09/18 02:21:48;;;;;;;10.23;5.15;;;21.10;99.90;;;;;;5059386;28;20025;-80
2023/09/18 02:24:16;;;;;;;10.13;4.70;;;21.10;99.90;;;;;;5074000;28;20020;-79
2023/09/18 02:26:41;;;;;;;12.93;4.90;;;21.10;99.90;;;;;;5058440;28;20628;-77
2023/09/18 02:29:14;;;;;;;10.07;4.55;;;21.10;99.90;;;;;;5070011;28;20040;-79
2023/09/18 02:31:40;;;;;;;9.23;3.60;;;21.20;99.90;;;;;;5059718;28;20345;-79
2023/09/18 02:34:07;;;;;;;7.00;4.30;;;21.20;99.90;;;;;;5071287;28;20559;-80
2023/09/18 02:36:33;;;;;;;8.73;4.90;;;21.20;99.90;;;;;;5062552;28;20025;-79
2023/09/18 02:39:01;;;;;;;7.85;4.55;;;21.20;99.90;;;;;;5061824;28;20123;-79
2023/09/18 02:41:26;;;;;;;10.70;4.90;;;21.20;99.90;;;;;;5070666;28;20158;-79
2023/09/18 02:43:52;;;;;;;7.68;3.75;;;21.10;99.90;;;;;;5062300;28;20543;-79
2023/09/18 02:46:18;;;;;;;10.48;5.25;;;21.20;99.90;;;;;;5060809;28;20037;-78
2023/09/18 02:48:43;;;;;;;11.15;4.90;;;21.10;99.90;;;;;;5060136;28;20016;-80
2023/09/18 02:51:09;;;;;;;9.48;4.90;;;21.10;99.90;;;;;;5060643;28;20120;-78
2023/09/18 02:53:35;;;;;;;10.38;4.50;;;21.10;99.90;;;;;;5061083;28;20048;-78
2023/09/18 02:56:01;;;;;;;9.32;4.72;;;21.00;99.90;;;;;;5060549;28;20057;-79
2023/09/18 02:58:29;;;;;;;6.70;4.32;;;21.00;99.90;;;;;;5059699;28;20043;-80
2023/09/18 03:00:55;;;;;;;9.10;4.78;;;21.00;99.90;;;;;;5062943;28;20028;-79
2023/09/18 03:03:21;;;;;;;13.75;5.32;;;21.00;99.90;;;;;;5061536;28;20071;-81
2023/09/18 03:05:47;;;;;;;6.13;3.97;;;21.00;99.90;;;;;;5060844;28;20056;-79
2023/09/18 03:08:16;;;;;;;12.70;5.57;;;21.00;99.90;;;;;;5063103;28;20919;-81
2023/09/18 03:10:43;;;;;;;8.98;4.70;;;20.90;99.90;;;;;;5061392;28;20036;-80
2023/09/18 03:13:10;;;;;;;7.97;4.70;;;20.90;99.90;;;;;;5063042;28;20036;-80
2023/09/18 03:15:37;;;;;;;11.00;5.10;;;20.90;99.90;;;;;;5077482;28;20025;-79
2023/09/18 03:18:04;;;;;;;12.23;4.93;;;20.90;99.90;;;;;;5068565;28;20075;-80
2023/09/18 03:20:32;;;;;;;10.48;5.00;;;20.80;99.90;;;;;;5064356;28;20059;-80
2023/09/18 03:22:59;;;;;;;11.90;5.80;;;20.80;99.90;;;;;;5063761;28;20082;-80
2023/09/18 03:25:25;;;;;;;11.70;4.80;;;20.80;99.90;;;;;;5062361;28;20128;-80
2023/09/18 03:27:52;;;;;;;8.55;5.30;;;20.80;99.90;;;;;;5059578;28;20115;-81
2023/09/18 03:30:23;;;;;;;10.13;5.10;;;20.80;99.90;;;;;;5062965;28;20350;-79
2023/09/18 03:32:51;;;;;;;10.35;4.75;;;20.80;99.90;;;;;;5061873;28;20032;-80
2023/09/18 03:35:18;;;;;;;19.02;5.43;;;20.80;99.90;;;;;;5058584;28;20121;-78
2023/09/18 03:37:52;;;;;;;14.90;5.00;;;20.80;99.90;;;;;;5058518;28;20033;-79
2023/09/18 03:40:23;;;;;;;10.80;4.50;;;20.80;99.90;;;;;;5061547;28;20056;-79
2023/09/18 03:42:52;;;;;;;9.35;4.22;;;20.80;99.90;;;;;;5062970;28;20032;-79
2023/09/18 03:45:20;;;;;;;14.75;4.60;;;20.70;99.90;;;;;;5059160;28;20035;-79
2023/09/18 03:47:49;;;;;;;8.80;3.90;;;20.80;99.90;;;;;;5059425;28;20025;-78
2023/09/18 03:50:15;;;;;;;12.43;4.07;;;20.80;99.90;;;;;;5061448;28;20021;-78
2023/09/18 03:52:41;;;;;;;10.18;5.15;;;20.80;99.90;;;;;;5060657;28;20063;-80
2023/09/18 03:55:10;;;;;;;10.40;4.43;;;20.80;99.90;;;;;;5059819;28;20116;-80
2023/09/18 03:57:41;;;;;;;11.10;4.47;;;20.80;99.90;;;;;;5060897;28;20508;-81
2023/09/18 04:00:08;;;;;;;9.43;4.80;;;20.80;99.90;;;;;;5063214;28;20029;-78
2023/09/18 04:02:34;;;;;;;11.93;4.35;;;20.80;99.90;;;;;;5062753;28;20044;-79
2023/09/18 04:05:04;;;;;;;14.35;4.07;;;20.70;99.90;;;;;;5064912;28;20109;-81
2023/09/18 04:07:31;;;;;;;11.82;3.67;;;20.80;99.90;;;;;;5058520;28;20085;-77
2023/09/18 04:09:56;;;;;;;13.27;4.45;;;20.80;99.90;;;;;;5076363;28;20025;-79
2023/09/18 04:12:22;;;;;;;12.52;3.80;;;20.80;99.90;;;;;;5069561;28;20078;-78
2023/09/18 04:14:48;;;;;;;18.92;4.90;;;20.70;99.90;;;;;;5055750;28;20025;-80
2023/09/18 04:17:13;;;;;;;8.40;3.30;;;20.70;99.90;;;;;;5056203;28;20442;-79
2023/09/18 04:19:39;;;;;;;10.35;3.83;;;20.70;99.90;;;;;;5069047;28;20582;-80
2023/09/18 04:22:08;;;;;;;8.40;3.58;;;20.70;99.90;;;;;;5059323;28;20106;-79
2023/09/18 04:24:33;;;;;;;14.05;4.32;;;20.60;99.90;;;;;;5075015;28;20074;-79
2023/09/18 04:26:59;;;;;;;13.55;4.38;;;20.60;99.90;;;;;;5056671;28;20036;-79
2023/09/18 04:29:24;;;;;;;11.35;3.92;;;20.60;99.90;;;;;;5059882;28;20037;-80
2023/09/18 04:31:50;;;;;;;12.68;4.28;;;20.60;99.90;;;;;;5059807;28;20109;-79
2023/09/18 04:34:16;;;;;;;13.10;4.28;;;20.60;99.90;;;;;;5056948;28;20040;-80
2023/09/18 04:36:44;;;;;;;14.20;5.03;;;20.60;99.90;;;;;;5070223;28;20029;-79
2023/09/18 04:39:09;;;;;;;15.27;3.97;;;20.50;99.90;;;;;;5059673;28;20036;-78
2023/09/18 04:41:39;;;;;;;15.15;4.20;;;20.50;99.90;;;;;;5057944;28;20029;-79
2023/09/18 04:44:05;;;;;;;15.88;4.63;;;20.50;99.90;;;;;;5058544;28;20032;-80
2023/09/18 04:46:31;;;;;;;11.57;4.20;;;20.50;99.90;;;;;;5069762;28;21792;-80
2023/09/18 04:48:56;;;;;;;11.50;4.18;;;20.50;99.90;;;;;;5057510;28;20094;-78
2023/09/18 04:51:22;;;;;;;15.48;3.55;;;20.50;99.90;;;;;;5056930;28;20034;-79
2023/09/18 04:53:51;;;;;;;17.58;4.65;;;20.40;99.90;;;;;;5055746;28;20029;-78
2023/09/18 04:56:18;;;;;;;12.88;4.32;;;20.40;99.90;;;;;;5073522;28;20041;-79
2023/09/18 04:58:43;;;;;;;14.27;4.22;;;20.40;99.90;;;;;;5078215;28;20044;-81
2023/09/18 05:01:10;;;;;;;9.18;3.63;;;20.40;99.90;;;;;;5059011;28;20032;-79
2023/09/18 05:03:36;;;;;;;14.55;4.68;;;20.40;99.90;;;;;;5057380;28;20032;-79
2023/09/18 05:06:04;;;;;;;9.02;3.92;;;20.40;99.90;;;;;;5059689;28;20036;-80
2023/09/18 05:08:31;;;;;;;10.13;4.00;;;20.40;99.90;;;;;;5058979;28;20097;-79
2023/09/18 05:10:57;;;;;;;9.60;4.22;;;20.40;99.90;;;;;;5059577;28;20032;-78
2023/09/18 05:13:23;;;;;;;9.18;4.15;;;20.30;99.90;;;;;;5061795;28;20048;-79
2023/09/18 05:15:48;;;;;;;13.18;4.13;;;20.30;99.90;;;;;;5061072;28;20059;-80
2023/09/18 05:18:14;;;;;;;16.45;4.50;;;20.30;99.90;;;;;;5057829;28;20563;-80
2023/09/18 05:20:44;;;;;;;15.25;4.43;;;20.30;99.90;;;;;;5059516;28;20111;-79
2023/09/18 05:23:10;;;;;;;12.40;4.57;;;20.30;99.90;;;;;;5075648;28;20098;-79
2023/09/18 05:25:38;;;;;;;12.90;4.03;;;20.30;99.90;;;;;;5075278;28;20100;-80
2023/09/18 05:28:05;;;;;;;16.60;4.35;;;20.30;99.90;;;;;;5058061;28;20487;-80
2023/09/18 05:30:34;;;;;;;12.60;4.10;;;20.30;99.90;;;;;;5055369;28;20137;-77
2023/09/18 05:33:07;;;;;;;11.23;4.07;;;20.30;99.90;;;;;;5061023;28;20377;-81
2023/09/18 05:35:41;;;;;;;12.75;3.97;;;20.30;99.90;;;;;;5060021;28;20413;-80
2023/09/18 05:38:08;;;;;;;16.73;4.28;;;20.20;99.90;;;;;;5056668;28;20044;-78
2023/09/18 05:40:36;;;;;;;10.30;4.10;;;20.30;99.90;;;;;;5075096;28;20482;-79
2023/09/18 05:43:02;;;;;;;15.75;4.50;;;20.30;99.90;;;;;;5057246;28;20039;-80
2023/09/18 05:45:28;;;;;;;18.00;3.92;;;20.30;99.90;;;;;;5057585;28;20569;-80
2023/09/18 05:48:01;;;;;;;12.25;4.38;;;20.30;99.90;;;;;;5057515;28;20430;-79
2023/09/18 05:50:29;;;;;;;13.60;3.70;;;20.30;99.90;;;;;;5059231;28;20147;-80
2023/09/18 05:52:59;;;;;;;13.10;3.55;;;20.30;99.90;;;;;;5063175;28;20021;-79
2023/09/18 05:55:27;;;;;;;12.93;3.63;;;20.30;99.90;;;;;;5058406;28;20028;-78
2023/09/18 05:57:54;;;;;;;13.55;3.10;;;20.30;99.90;;;;;;5071720;28;20056;-79
2023/09/18 06:00:20;;;;;;;9.45;3.03;;;20.30;99.90;;;;;;5058450;28;20024;-78
2023/09/18 06:02:46;;;;;;;8.35;3.50;;;20.30;99.90;;;;;;5058831;28;20024;-79
2023/09/18 06:05:15;;;;;;;10.50;3.90;;;20.30;99.90;;;;;;5061395;28;20377;-78
2023/09/18 06:07:41;;;;;;;12.27;4.32;;;20.30;99.90;;;;;;5063675;28;20116;-79
2023/09/18 06:10:09;;;;;;;11.35;3.60;;;20.30;99.90;;;;;;5063777;28;20115;-80
2023/09/18 06:12:41;;;;;;;12.93;3.08;;;20.30;99.90;;;;;;5062466;28;20066;-79
2023/09/18 06:15:11;;;;;;;10.43;3.03;;;20.30;99.90;;;;;;5075638;28;20017;-80
2023/09/18 06:17:44;;;;;;;20.50;3.40;;;20.30;99.90;;;;;;5074541;28;20158;-80
2023/09/18 06:20:12;;;;;;;8.20;2.63;;;20.40;99.90;;;;;;5069720;28;20056;-79
2023/09/18 06:22:39;;;;;;;8.68;2.83;;;20.40;99.90;;;;;;5062191;28;20032;-78
2023/09/18 06:25:12;;;;;;;10.27;2.97;;;20.40;99.90;;;;;;5061524;28;20024;-79
2023/09/18 06:27:38;;;;;;;16.90;3.47;;;20.40;99.90;;;;;;5078041;28;20403;-80
2023/09/18 06:30:05;;;;;;;9.07;3.08;;;20.50;99.90;;;;;;5062375;28;20025;-79
2023/09/18 06:32:31;;;;;;;13.20;3.53;;;20.50;99.90;;;;;;5068216;28;20093;-79
2023/09/18 06:34:59;;;;;;;8.68;2.85;;;20.50;99.90;;;;;;5064376;28;20036;-78
2023/09/18 06:37:25;;;;;;;15.18;3.22;;;20.50;99.90;;;;;;5078436;28;20040;-78
2023/09/18 06:39:51;;;;;;;13.38;3.88;;;20.60;99.90;;;;;;5062670;28;20145;-76
2023/09/18 06:42:17;;;;;;;14.52;3.60;;;20.60;99.90;;;;;;5060860;28;20035;-80
2023/09/18 06:44:45;;;;;;;8.18;3.15;;;20.60;99.90;;;;;;5060871;28;20025;-78
2023/09/18 06:47:14;;;;;;;10.38;2.65;;;20.60;99.90;;;;;;5062629;28;20035;-80
2023/09/18 06:49:41;;;;;;;11.38;3.08;;;20.60;99.90;;;;;;5061976;28;20039;-78
2023/09/18 06:52:07;;;;;;;11.15;2.75;;;20.60;99.90;;;;;;5063471;28;20357;-79
2023/09/18 06:54:33;;;;;;;7.05;2.50;;;20.60;99.90;;;;;;5063657;28;20028;-79
2023/09/18 06:57:01;;;;;;;9.05;2.22;;;20.70;99.90;;;;;;5060517;28;20039;-78
2023/09/18 06:59:29;;;;;;;7.85;2.30;;;20.70;99.90;;;;;;5071393;28;20203;-79
2023/09/18 07:01:55;;;;;;;5.93;2.28;;;20.80;99.90;;;;;;5078307;28;20060;-78
2023/09/18 07:04:26;;;;;;;10.75;2.47;;;20.80;99.90;;;;;;5071856;28;20350;-79
2023/09/18 07:06:53;;;;;;;14.23;2.45;;;20.80;99.90;;;;;;5058817;28;20055;-80
2023/09/18 07:09:19;;;;;;;7.93;2.80;;;20.80;99.90;;;;;;5058792;28;20066;-79
2023/09/18 07:11:45;;;;;;;3.38;2.05;;;20.90;99.90;;;;;;5060824;28;20563;-79
2023/09/18 07:14:13;;;;;;;5.28;2.00;;;20.90;99.90;;;;;;5059295;28;20055;-78
2023/09/18 07:16:38;;;;;;;8.32;2.58;;;21.00;99.90;;;;;;5060370;28;20438;-77
2023/09/18 07:19:06;;;;;;;5.40;1.83;;;21.00;99.90;;;;;;5058156;28;20062;-79
2023/09/18 07:21:33;;;;;;;7.47;2.20;;;21.10;99.90;;;;;;5066414;28;20060;-79
2023/09/18 07:23:58;;;;;;;8.25;1.65;;;21.10;99.90;;;;;;5061021;28;20048;-79
2023/09/18 07:26:24;;;;;;;8.13;1.80;;;21.10;99.90;;;;;;5069761;28;20029;-78
2023/09/18 07:28:52;;;;;;;8.02;2.13;;;21.20;99.90;;;;;;5070711;28;20029;-79
2023/09/18 07:31:17;;;;;;;4.68;1.52;;;21.20;99.90;;;;;;5058422;28;20155;-79
2023/09/18 07:33:43;;;;;;;6.28;2.00;;;21.20;99.90;;;;;;5058425;28;20047;-80
2023/09/18 07:36:11;;;;;;;6.85;1.55;;;21.20;99.90;;;;;;5070383;28;20044;-79
2023/09/18 07:38:37;;;;;;;7.78;1.80;;;21.20;99.90;;;;;;5061593;28;20026;-79
2023/09/18 07:41:05;;;;;;;6.13;1.67;;;21.20;99.90;;;;;;5061065;28;20083;-77
2023/09/18 07:43:31;;;;;;;10.43;2.10;;;21.20;99.90;;;;;;5056763;28;20166;-77
2023/09/18 07:45:59;;;;;;;6.80;1.35;;;21.30;99.90;;;;;;5057831;28;20040;-79
2023/09/18 07:48:25;;;;;;;3.38;1.63;;;21.30;99.90;;;;;;5071156;28;20024;-78
2023/09/18 07:50:54;;;;;;;8.90;1.95;;;21.40;99.90;;;;;;5058654;28;20516;-79
2023/09/18 07:53:20;;;;;;;5.75;1.77;;;21.40;99.90;;;;;;5069261;28;20029;-79
2023/09/18 07:55:49;;;;;;;6.15;1.38;;;21.40;99.90;;;;;;5076778;28;20039;-79
2023/09/18 07:58:15;;;;;;;6.22;1.80;;;21.40;99.90;;;;;;5074630;28;20128;-79
2023/09/18 08:00:40;;;;;;;9.90;1.58;;;21.40;99.90;;;;;;5057729;28;20028;-77
2023/09/18 08:03:08;;;;;;;6.25;1.48;;;21.50;99.90;;;;;;5057386;28;20039;-79
2023/09/18 08:05:34;;;;;;;5.68;1.20;;;21.50;99.90;;;;;;5059436;28;20036;-79
2023/09/18 08:08:00;;;;;;;6.78;1.50;;;21.50;99.90;;;;;;5059481;28;20034;-79
2023/09/18 08:10:28;;;;;;;5.82;1.90;;;21.50;99.90;;;;;;5059951;28;20029;-78
2023/09/18 08:12:54;;;;;;;6.05;1.42;;;21.50;99.90;;;;;;5059621;28;20028;-79
2023/09/18 08:15:22;;;;;;;6.22;1.73;;;21.50;99.90;;;;;;5068925;28;20039;-79
2023/09/18 08:17:53;;;;;;;4.18;1.77;;;21.50;99.90;;;;;;5060014;28;20029;-79
2023/09/18 08:20:18;;;;;;;6.57;1.00;;;21.60;99.90;;;;;;5060926;28;20067;-79
2023/09/18 08:22:45;;;;;;;3.67;1.20;;;21.60;99.90;;;;;;5058105;28;20036;-78
2023/09/18 08:25:11;;;;;;;9.50;1.48;;;21.60;99.90;;;;;;5060377;28;20086;-78
2023/09/18 08:27:41;;;;;;;4.43;1.52;;;21.60;99.90;;;;;;5069010;28;20030;-79
2023/09/18 08:30:09;;;;;;;4.50;1.30;;;21.60;99.90;;;;;;5056425;28;20232;-79
2023/09/18 08:32:35;;;;;;;3.38;1.30;;;21.70;99.90;;;;;;5074386;28;20044;-78
2023/09/18 08:35:01;;;;;;;5.20;1.63;;;21.70;99.90;;;;;;5061457;28;20067;-79
2023/09/18 08:37:27;;;;;;;4.72;1.67;;;21.70;99.90;;;;;;5059046;28;20044;-79
2023/09/18 08:39:53;;;;;;;6.97;1.63;;;21.70;99.90;;;;;;5058183;28;20461;-76
2023/09/18 08:42:21;;;;;;;1.77;0.60;;;21.70;99.90;;;;;;5073525;28;20035;-78
2023/09/18 08:44:50;;;;;;;2.97;1.13;;;21.70;99.90;;;;;;5057941;28;20062;-79
2023/09/18 08:47:18;;;;;;;4.10;0.93;;;21.80;99.90;;;;;;5059086;28;20397;-79
2023/09/18 08:49:48;;;;;;;5.05;1.42;;;21.80;99.90;;;;;;5059187;28;20063;-79
2023/09/18 08:52:15;;;;;;;7.53;1.50;;;21.90;99.90;;;;;;5060153;28;20020;-79
2023/09/18 08:54:42;;;;;;;3.05;1.08;;;21.90;99.90;;;;;;5059407;28;20236;-78
2023/09/18 08:57:11;;;;;;;5.32;0.70;;;21.90;99.90;;;;;;5056571;28;20402;-79
2023/09/18 08:59:39;;;;;;;4.80;1.38;;;21.90;99.90;;;;;;5066462;28;20085;-79
2023/09/18 09:02:04;;;;;;;2.97;0.85;;;22.00;99.90;;;;;;5059002;28;20024;-78
2023/09/18 09:04:30;;;;;;;6.32;0.93;;;22.00;99.90;;;;;;5056200;28;20043;-78
2023/09/18 09:06:59;;;;;;;2.03;0.75;;;22.00;99.90;;;;;;5058652;28;20055;-79
2023/09/18 09:09:26;;;;;;;2.00;0.90;;;22.10;99.90;;;;;;5065287;28;20526;-77
2023/09/18 09:11:52;;;;;;;8.75;1.45;;;22.20;99.90;;;;;;5058072;28;20120;-77
2023/09/18 09:14:21;;;;;;;1.77;0.85;;;22.20;99.90;;;;;;5071113;28;20530;-80
2023/09/18 09:16:48;;;;;;;2.17;0.90;;;22.20;99.90;;;;;;5068679;28;20047;-79
2023/09/18 09:19:16;;;;;;;9.05;1.52;;;22.20;99.90;;;;;;5072296;28;20086;-78
2023/09/18 09:21:43;;;;;;;3.17;1.27;;;22.30;99.90;;;;;;5056109;28;20040;-79
2023/09/18 09:24:15;;;;;;;8.93;1.50;;;22.30;99.90;;;;;;5059740;28;20156;-79
2023/09/18 09:26:42;;;;;;;4.85;0.90;;;22.40;99.90;;;;;;5058273;28;20076;-79
2023/09/18 09:29:19;;;;;;;3.28;0.90;;;22.40;99.90;;;;;;5059571;28;20033;-79
2023/09/18 09:31:48;;;;;;;2.30;0.80;;;22.40;99.90;;;;;;5057404;28;20025;-78
2023/09/18 09:34:26;;;;;;;2.95;0.88;;;22.40;99.90;;;;;;5073575;28;20040;-78
2023/09/18 09:36:55;;;;;;;2.50;0.68;;;22.50;99.90;;;;;;5070899;28;20029;-78
2023/09/18 09:39:24;;;;;;;4.18;1.33;;;22.50;99.90;;;;;;5058518;28;20631;-78
2023/09/18 09:41:51;;;;;;;3.10;1.20;;;22.50;99.90;;;;;;5074773;28;20047;-77
2023/09/18 09:44:17;;;;;;;3.88;0.90;;;22.60;99.90;;;;;;5063879;28;20662;-78
2023/09/18 09:46:51;;;;;;;4.22;1.02;;;22.60;99.90;;;;;;5067970;28;20159;-78
2023/09/18 09:49:19;;;;;;;4.78;1.30;;;22.70;99.90;;;;;;5065623;28;20042;-79
2023/09/18 09:51:48;;;;;;;2.65;1.15;;;22.70;99.90;;;;;;5059658;28;20082;-77
2023/09/18 09:54:16;;;;;;;3.75;1.02;;;22.70;99.90;;;;;;5056981;28;20082;-78
2023/09/18 09:56:45;;;;;;;7.47;1.10;;;22.70;99.90;;;;;;5056591;28;20040;-78
2023/09/18 09:59:13;;;;;;;3.78;0.85;;;22.70;99.90;;;;;;5056003;28;20116;-78
2023/09/18 10:01:40;;;;;;;3.78;1.00;;;22.80;99.90;;;;;;5056032;28;20944;-78
2023/09/18 10:04:09;;;;;;;5.72;1.00;;;22.80;99.90;;;;;;5057242;28;20067;-78
2023/09/18 10:06:41;;;;;;;2.55;1.10;;;22.70;99.90;;;;;;5067378;28;20123;-79
2023/09/18 10:09:10;;;;;;;4.00;1.00;;;22.80;99.90;;;;;;5057139;28;20025;-78
2023/09/18 10:11:41;;;;;;;1.48;0.73;;;22.80;99.90;;;;;;5059320;28;20162;-78
2023/09/18 10:14:16;;;;;;;1.90;0.63;;;22.80;99.90;;;;;;5056912;28;20024;-76
2023/09/18 10:16:47;;;;;;;7.63;1.20;;;22.70;99.90;;;;;;5057131;28;20943;-78
2023/09/18 10:19:38;;;;;;;5.13;1.30;;;22.80;99.90;;;;;;5059960;28;20115;-75
2023/09/18 10:22:20;;;;;;;2.05;1.00;;;22.70;99.90;;;;;;5056690;28;20120;-78
2023/09/18 10:24:49;;;;;;;4.93;0.98;;;22.60;99.90;;;;;;5056323;28;20044;-77
2023/09/18 10:27:18;;;;;;;3.95;1.35;;;22.60;99.90;;;;;;5064786;28;20028;-78
2023/09/18 10:29:48;;;;;;;4.13;0.90;;;22.50;99.90;;;;;;5074731;28;20025;-76
2023/09/18 10:32:15;;;;;;;3.15;0.90;;;22.60;99.90;;;;;;5056637;28;20097;-78
2023/09/18 10:34:43;;;;;;;3.20;0.85;;;22.60;99.90;;;;;;5058113;28;20021;-79
2023/09/18 10:37:14;;;;;;;2.28;0.90;;;22.70;99.90;;;;;;5058908;28;20630;-79
2023/09/18 10:39:43;;;;;;;4.90;1.27;;;22.70;99.90;;;;;;5068696;28;20032;-78
2023/09/18 10:42:09;;;;;;;3.60;1.20;;;22.70;99.90;;;;;;5073659;28;20028;-78
2023/09/18 10:44:41;;;;;;;3.45;1.25;;;22.70;99.90;;;;;;5057680;28;20029;-78
2023/09/18 10:47:08;;;;;;;2.22;0.90;;;22.70;99.90;;;;;;5067556;28;20029;-78
2023/09/18 10:49:35;;;;;;;3.10;0.70;;;22.80;99.90;;;;;;5059108;28;20038;-79
2023/09/18 10:52:03;;;;;;;2.30;0.95;;;22.90;99.90;;;;;;5072411;28;20024;-78
2023/09/18 10:54:32;;;;;;;2.45;1.08;;;22.90;99.90;;;;;;5062677;28;20050;-77
2023/09/18 10:56:58;;;;;;;1.95;0.77;;;23.00;99.90;;;;;;5081537;28;20027;-78
2023/09/18 10:59:24;;;;;;;4.75;0.60;;;23.10;99.90;;;;;;5062364;28;20039;-76
2023/09/18 11:01:53;;;;;;;3.72;0.80;;;23.10;99.90;;;;;;5062119;28;20037;-78
2023/09/18 11:04:22;;;;;;;8.30;0.93;;;23.10;99.90;;;;;;5074817;28;20029;-77
2023/09/18 11:06:54;;;;;;;1.83;0.82;;;23.10;99.90;;;;;;5075534;28;20028;-78
2023/09/18 11:09:25;;;;;;;6.72;1.00;;;23.20;99.90;;;;;;5076533;28;20163;-79
2023/09/18 11:12:04;;;;;;;3.45;1.10;;;23.20;99.90;;;;;;5071190;28;20128;-78
2023/09/18 11:15:10;;;;;;;1.35;0.85;;;23.30;99.90;;;;;;5065337;28;20116;-79
2023/09/18 11:17:38;;;;;;;4.20;1.00;;;23.40;99.90;;;;;;4998173;28;20026;-78
2023/09/18 11:20:16;;;;;;;4.93;0.70;;;23.40;99.90;;;;;;4999775;28;20081;-77
2023/09/18 11:23:01;;;;;;;2.00;0.60;;;23.50;99.90;;;;;;4998868;28;20124;-78
2023/09/18 11:25:41;;;;;;;3.58;0.85;;;23.50;99.90;;;;;;4998626;28;21964;-79
2023/09/18 11:28:28;;;;;;;1.70;0.93;;;23.50;99.90;;;;;;4983659;28;20061;-78
2023/09/18 11:31:01;;;;;;;2.83;0.80;;;23.60;99.90;;;;;;5002414;28;20049;-79
2023/09/18 11:33:40;;;;;;;3.15;1.05;;;23.80;99.90;;;;;;4998835;28;20141;-78
2023/09/18 11:36:14;;;;;;;2.97;1.13;;;24.00;99.90;;;;;;4985216;28;20037;-77
2023/09/18 11:38:53;;;;;;;2.25;1.00;;;24.10;99.90;;;;;;4998694;28;20044;-79
2023/09/18 11:41:29;;;;;;;2.25;0.68;;;24.20;99.90;;;;;;4998308;28;20034;-78
2023/09/18 11:44:19;;;;;;;4.45;1.23;;;24.30;99.90;;;;;;5001506;28;20522;-78
2023/09/18 11:46:51;;;;;;;1.13;0.60;;;24.30;99.90;;;;;;5003844;28;20498;-79
2023/09/18 11:49:27;;;;;;;4.45;0.98;;;24.30;99.90;;;;;;5052372;28;20045;-77
2023/09/18 11:51:52;;;;;;;1.88;0.70;;;24.30;99.90;;;;;;5059711;28;20024;-77
2023/09/18 11:54:21;;;;;;;3.45;0.82;;;24.40;99.90;;;;;;5061270;28;20351;-78
2023/09/18 11:56:47;;;;;;;2.38;1.05;;;24.40;99.90;;;;;;5057345;28;20453;-79
2023/09/18 11:59:13;;;;;;;1.55;0.77;;;24.40;99.90;;;;;;5059301;28;20029;-78
2023/09/18 12:01:46;;;;;;;4.57;1.42;;;24.30;99.90;;;;;;5061138;28;20043;-76
2023/09/18 12:04:12;;;;;;;1.35;0.80;;;24.40;99.90;;;;;;5076508;28;20059;-78
2023/09/18 12:06:41;;;;;;;2.25;0.65;;;24.30;99.90;;;;;;5061585;28;20472;-77
2023/09/18 12:09:08;;;;;;;5.03;1.15;;;24.40;99.90;;;;;;5066496;28;21677;-79
2023/09/18 12:11:35;;;;;;;1.05;0.68;;;24.30;99.90;;;;;;5076450;28;20032;-77
2023/09/18 12:14:04;;;;;;;3.47;1.40;;;24.40;99.90;;;;;;5058533;28;20131;-79
2023/09/18 12:16:29;;;;;;;2.10;0.68;;;24.50;99.90;;;;;;5059710;28;20024;-79
2023/09/18 12:18:59;;;;;;;6.82;0.90;;;24.50;99.90;;;;;;5067827;28;20033;-79
2023/09/18 12:21:24;;;;;;;4.00;0.90;;;24.50;99.90;;;;;;5058600;28;20059;-78
2023/09/18 12:23:50;;;;;;;2.80;1.10;;;24.70;99.90;;;;;;5059367;28;20088;-78
2023/09/18 12:26:20;;;;;;;2.80;0.88;;;24.70;99.90;;;;;;5065972;28;20638;-79
2023/09/18 12:28:48;;;;;;;7.07;1.17;;;24.70;99.90;;;;;;5058087;28;20024;-78
2023/09/18 12:31:16;;;;;;;5.68;0.98;;;24.60;99.90;;;;;;5060042;28;20075;-78
2023/09/18 12:33:47;;;;;;;2.65;0.60;;;24.60;99.90;;;;;;5060652;28;20038;-76
2023/09/18 12:36:19;;;;;;;1.85;0.73;;;24.60;99.90;;;;;;5058867;28;20016;-78
2023/09/18 12:38:57;;;;;;;4.75;0.85;;;24.60;99.90;;;;;;5058010;28;20032;-78
2023/09/18 12:41:27;;;;;;;4.28;1.10;;;24.60;99.90;;;;;;5057286;28;20024;-78
2023/09/18 12:43:56;;;;;;;2.85;0.90;;;24.70;99.90;;;;;;5056735;28;20038;-79
2023/09/18 12:46:22;;;;;;;6.32;1.20;;;24.70;99.90;;;;;;5058076;28;20037;-77
2023/09/18 12:48:51;;;;;;;2.67;0.80;;;24.70;99.90;;;;;;5059802;28;20040;-78